createdAt,value
2023-03-15T00:00:32.702Z,99032.91
2023-03-15T00:03:23.705Z,99080.78
2023-03-15T00:06:10.721Z,99070.38
2023-03-15T00:08:57.511Z,99070.56
2023-03-15T00:11:44.110Z,99064.81
2023-03-15T00:14:31.895Z,99077.09
2023-03-15T00:17:18.728Z,99076.09
2023-03-15T00:20:07.630Z,99051.19
2023-03-15T00:22:54.576Z,99084.31
2023-03-15T00:25:45.460Z,99090.59
2023-03-15T00:28:34.051Z,99103.84
2023-03-15T00:31:24.102Z,99102.72
2023-03-15T00:34:14.069Z,99116.56
2023-03-15T00:37:00.895Z,99072.97
2023-03-15T00:39:48.133Z,99099.00
2023-03-15T00:42:35.080Z,99117.31
2023-03-15T00:45:22.248Z,99111.63
2023-03-15T00:48:09.284Z,99130.09
2023-03-15T00:51:16.086Z,99126.94
2023-03-15T00:54:07.087Z,99142.75
2023-03-15T00:56:53.694Z,99140.56
2023-03-15T00:59:40.525Z,99150.44
2023-03-15T01:02:27.041Z,99099.63
2023-03-15T01:05:14.399Z,99127.00
2023-03-15T01:08:03.258Z,99175.38
2023-03-15T01:10:50.969Z,99184.53
2023-03-15T01:13:38.211Z,99124.97
2023-03-15T01:16:25.132Z,99167.56
2023-03-15T01:19:12.812Z,99172.16
2023-03-15T01:22:00.844Z,99182.16
2023-03-15T01:24:47.461Z,99179.63
2023-03-15T01:27:34.392Z,99188.09
2023-03-15T01:30:23.570Z,99201.84
2023-03-15T01:33:10.467Z,99163.78
2023-03-15T01:36:05.469Z,99229.13
2023-03-15T01:38:55.239Z,99226.19
2023-03-15T01:41:47.340Z,99226.09
2023-03-15T01:45:28.469Z,99242.75
2023-03-15T01:48:15.547Z,99255.94
2023-03-15T01:51:14.396Z,99248.97
2023-03-15T01:54:17.518Z,99257.72
2023-03-15T01:57:08.686Z,99253.47
2023-03-15T02:00:12.821Z,99242.31
2023-03-15T02:03:04.066Z,99267.63
2023-03-15T02:05:58.083Z,99276.69
2023-03-15T02:09:09.460Z,99227.91
2023-03-15T02:11:59.676Z,99249.66
2023-03-15T02:14:46.470Z,99309.66
2023-03-15T02:17:41.959Z,99303.66
2023-03-15T02:20:45.406Z,99301.06
2023-03-15T02:23:32.292Z,99320.50
2023-03-15T02:26:25.999Z,99295.50
2023-03-15T02:29:12.808Z,99322.56
2023-03-15T02:32:00.443Z,99320.84
2023-03-15T02:34:46.678Z,99312.31
2023-03-15T02:37:33.312Z,99333.59
2023-03-15T02:40:22.207Z,99316.69
2023-03-15T02:43:16.742Z,99337.56
2023-03-15T02:46:06.892Z,99308.00
2023-03-15T02:48:55.999Z,99334.84
2023-03-15T02:51:42.380Z,99298.59
2023-03-15T02:54:29.175Z,99367.03
2023-03-15T02:57:18.210Z,99370.06
2023-03-15T03:00:14.342Z,99367.81
2023-03-15T03:03:01.989Z,99393.16
2023-03-15T03:05:48.835Z,99381.28
2023-03-15T03:08:35.549Z,99379.47
2023-03-15T03:11:22.372Z,99395.56
2023-03-15T03:14:09.810Z,99404.22
2023-03-15T03:16:56.790Z,99413.47
2023-03-15T03:19:43.701Z,99409.47
2023-03-15T03:22:30.987Z,99410.78
2023-03-15T03:25:18.087Z,99405.75
2023-03-15T03:28:06.425Z,99416.78
2023-03-15T03:30:56.603Z,99419.97
2023-03-15T03:33:43.423Z,99426.53
2023-03-15T03:36:29.686Z,99426.00
2023-03-15T03:39:16.742Z,99426.56
2023-03-15T03:42:04.792Z,99427.09
2023-03-15T03:44:51.840Z,99401.78
2023-03-15T03:47:39.219Z,99432.88
2023-03-15T03:50:26.830Z,99420.16
2023-03-15T03:53:13.480Z,99436.00
2023-03-15T03:56:04.214Z,99384.75
2023-03-15T03:58:51.201Z,99409.38
2023-03-15T04:01:58.550Z,99453.56
2023-03-15T04:04:45.463Z,99455.22
2023-03-15T04:07:39.017Z,99451.75
2023-03-15T04:10:28.799Z,99471.34
2023-03-15T04:13:15.705Z,99431.38
2023-03-15T04:16:04.085Z,99493.47
2023-03-15T04:19:01.963Z,99481.16
2023-03-15T04:21:52.658Z,99504.78
2023-03-15T04:25:03.275Z,99509.69
2023-03-15T04:28:12.287Z,99475.28
2023-03-15T04:31:10.824Z,99513.91
2023-03-15T04:33:57.672Z,99512.81
2023-03-15T04:37:03.189Z,99472.94
2023-03-15T04:40:13.423Z,99537.53
2023-03-15T04:43:13.219Z,99479.72
2023-03-15T04:46:09.546Z,99546.44
2023-03-15T04:49:25.953Z,99546.81
2023-03-15T04:52:30.589Z,99553.59
2023-03-15T04:55:17.706Z,99549.00
2023-03-15T04:58:35.667Z,99563.34
2023-03-15T05:01:31.861Z,99552.75
2023-03-15T05:04:36.441Z,99540.84
2023-03-15T05:07:52.500Z,99549.78
2023-03-15T05:10:55.174Z,99524.16
2023-03-15T05:14:05.442Z,99543.34
2023-03-15T05:17:30.802Z,99496.00
2023-03-15T05:20:20.021Z,99502.66
2023-03-15T05:23:26.730Z,99510.31
2023-03-15T05:26:31.465Z,99581.63
2023-03-15T05:29:36.182Z,99574.56
2023-03-15T05:32:45.016Z,99595.66
2023-03-15T05:35:31.568Z,99602.75
2023-03-15T05:38:57.743Z,99610.66
2023-03-15T05:41:54.144Z,99543.06
2023-03-15T05:44:51.511Z,99609.81
2023-03-15T05:47:56.699Z,99603.78
2023-03-15T05:50:54.363Z,99598.66
2023-03-15T05:54:00.766Z,99633.03
2023-03-15T05:57:04.955Z,99640.09
2023-03-15T06:00:18.682Z,99605.50
2023-03-15T06:03:11.243Z,99591.16
2023-03-15T06:06:15.849Z,99667.41
2023-03-15T06:09:02.795Z,99660.66
2023-03-15T06:11:49.664Z,99675.78
2023-03-15T06:14:36.579Z,99679.00
2023-03-15T06:17:27.199Z,99676.84
2023-03-15T06:20:14.810Z,99670.31
2023-03-15T06:23:01.321Z,99679.25
2023-03-15T06:26:08.087Z,99669.47
2023-03-15T06:28:56.978Z,99699.00
2023-03-15T06:31:45.144Z,99661.19
2023-03-15T06:34:31.968Z,99691.69
2023-03-15T06:37:29.041Z,99709.63
2023-03-15T06:40:21.452Z,99706.13
2023-03-15T06:43:18.407Z,99720.47
2023-03-15T06:46:08.919Z,99724.00
2023-03-15T06:48:56.138Z,99728.31
2023-03-15T06:51:45.276Z,99676.38
2023-03-15T06:54:32.367Z,99744.47
2023-03-15T06:57:19.738Z,99747.47
2023-03-15T07:00:11.433Z,99703.19
2023-03-15T07:02:58.270Z,99732.41
2023-03-15T07:05:46.852Z,99751.34
2023-03-15T07:08:33.443Z,99739.75
2023-03-15T07:11:21.117Z,99785.75
2023-03-15T07:14:11.934Z,99773.31
2023-03-15T07:17:01.021Z,99745.72
2023-03-15T07:19:56.224Z,99781.06
2023-03-15T07:22:46.340Z,99755.88
2023-03-15T07:25:37.597Z,99791.72
2023-03-15T07:28:29.093Z,99790.09
2023-03-15T07:31:15.907Z,99744.59
2023-03-15T07:34:03.137Z,99765.03
2023-03-15T07:36:52.161Z,99805.44
2023-03-15T07:39:38.859Z,99796.53
2023-03-15T07:42:25.270Z,99771.91
2023-03-15T07:45:16.012Z,99807.63
2023-03-15T07:48:02.236Z,99744.00
2023-03-15T07:50:51.941Z,99791.53
2023-03-15T07:53:38.086Z,99789.97
2023-03-15T07:56:27.227Z,99799.41
2023-03-15T07:59:15.207Z,99805.88
2023-03-15T08:02:05.776Z,99802.94
2023-03-15T08:04:52.153Z,99817.69
2023-03-15T08:07:39.093Z,99830.94
2023-03-15T08:10:25.306Z,99802.56
2023-03-15T08:13:13.059Z,99814.22
2023-03-15T08:15:59.664Z,99841.31
2023-03-15T08:18:46.837Z,99825.31
2023-03-15T08:21:33.923Z,99808.19
2023-03-15T08:24:23.828Z,99804.13
2023-03-15T08:27:11.282Z,99836.34
2023-03-15T08:29:58.123Z,99788.69
2023-03-15T08:32:46.413Z,99846.22
2023-03-15T08:35:34.466Z,99844.81
2023-03-15T08:38:20.986Z,99841.25
2023-03-15T08:41:08.341Z,99853.84
2023-03-15T08:43:55.179Z,99838.84
2023-03-15T08:46:44.200Z,99862.13
2023-03-15T08:49:30.500Z,99861.03
2023-03-15T08:52:18.208Z,99860.72
2023-03-15T08:55:05.685Z,99881.00
2023-03-15T08:57:52.787Z,99887.28
2023-03-15T09:00:39.367Z,99873.16
2023-03-15T09:03:26.335Z,99892.81
2023-03-15T09:06:13.785Z,99885.16
2023-03-15T09:09:00.753Z,99870.09
2023-03-15T09:11:47.491Z,99843.69
2023-03-15T09:14:34.185Z,99883.84
2023-03-15T09:17:23.188Z,99901.16
2023-03-15T09:20:16.438Z,99892.69
2023-03-15T09:23:20.844Z,99920.59
2023-03-15T09:26:11.598Z,99915.63
2023-03-15T09:29:00.943Z,99923.22
2023-03-15T09:31:47.879Z,99930.56
2023-03-15T09:34:41.690Z,99905.56
2023-03-15T09:37:31.967Z,99923.91
2023-03-15T09:40:30.395Z,99922.91
2023-03-15T09:43:42.005Z,99938.66
2023-03-15T09:46:42.089Z,99939.66
2023-03-15T09:49:32.475Z,99943.69
2023-03-15T09:52:36.267Z,99935.38
2023-03-15T09:55:25.378Z,99943.94
2023-03-15T09:58:44.658Z,99959.19
2023-03-15T10:01:40.998Z,99933.22
2023-03-15T10:04:30.810Z,99954.25
2023-03-15T10:07:22.880Z,99955.13
2023-03-15T10:10:23.315Z,99959.25
2023-03-15T10:13:24.772Z,99963.81
2023-03-15T10:16:26.218Z,99969.31
2023-03-15T10:19:30.398Z,99962.50
2023-03-15T10:22:30.354Z,99956.66
2023-03-15T10:25:32.638Z,99961.63
2023-03-15T10:28:28.270Z,99967.09
2023-03-15T10:31:36.572Z,99900.25
2023-03-15T10:34:30.574Z,99960.53
2023-03-15T10:37:20.248Z,99929.66
2023-03-15T10:40:13.865Z,99944.41
2023-03-15T10:43:00.936Z,99966.94
2023-03-15T10:46:00.941Z,99965.09
2023-03-15T10:49:01.095Z,99957.94
2023-03-15T10:51:49.068Z,99969.44
2023-03-15T10:54:42.048Z,99956.59
2023-03-15T10:57:52.148Z,99960.94
2023-03-15T11:00:41.775Z,99944.88
2023-03-15T11:03:28.723Z,99974.44
2023-03-15T11:06:21.842Z,99979.13
2023-03-15T11:09:14.711Z,99974.38
2023-03-15T11:12:04.167Z,99956.69
2023-03-15T11:14:53.369Z,99983.09
2023-03-15T11:17:47.574Z,99979.06
2023-03-15T11:20:39.747Z,99986.06
2023-03-15T11:23:35.557Z,99983.03
2023-03-15T11:26:32.483Z,99982.19
2023-03-15T11:29:31.974Z,99973.56
2023-03-15T11:32:18.477Z,99989.47
2023-03-15T11:35:06.527Z,99958.78
2023-03-15T11:38:14.643Z,99974.69
2023-03-15T11:41:37.534Z,99979.44
2023-03-15T11:44:44.492Z,99980.69
2023-03-15T11:47:52.739Z,99982.31
2023-03-15T11:50:40.343Z,99979.31
2023-03-15T11:53:33.350Z,99970.56
2023-03-15T11:56:30.761Z,99977.81
2023-03-15T11:59:40.648Z,99989.31
2023-03-15T12:02:27.342Z,99986.81
2023-03-15T12:05:47.686Z,99985.72
2023-03-15T12:08:55.044Z,99989.31
2023-03-15T12:11:43.129Z,99989.03
2023-03-15T12:14:32.267Z,99956.63
2023-03-15T12:17:31.631Z,99989.88
2023-03-15T12:20:43.119Z,99961.03
2023-03-15T12:23:38.948Z,99990.25
2023-03-15T12:26:54.001Z,99993.06
2023-03-15T12:29:45.760Z,99964.41
2023-03-15T12:32:44.522Z,99986.19
2023-03-15T12:35:47.540Z,99998.09
2023-03-15T12:38:37.731Z,100002.22
2023-03-15T12:41:49.593Z,100015.06
2023-03-15T12:44:49.222Z,99997.09
2023-03-15T12:47:51.707Z,100010.13
2023-03-15T12:50:51.484Z,99965.88
2023-03-15T12:53:48.252Z,99998.06
2023-03-15T12:56:42.913Z,99991.25
2023-03-15T12:59:59.181Z,99994.59
2023-03-15T13:02:50.882Z,99946.88
2023-03-15T13:06:09.443Z,99996.81
2023-03-15T13:08:58.846Z,100002.44
2023-03-15T13:12:15.538Z,100003.88
2023-03-15T13:15:19.961Z,99998.66
2023-03-15T13:18:18.231Z,100009.97
2023-03-15T13:21:21.265Z,100015.31
2023-03-15T13:24:34.554Z,100019.09
2023-03-15T13:27:28.512Z,100024.13
2023-03-15T13:30:40.106Z,100023.03
2023-03-15T13:33:30.815Z,100042.03
2023-03-15T13:36:23.762Z,100002.66
2023-03-15T13:39:18.571Z,100072.75
2023-03-15T13:42:24.696Z,100081.16
2023-03-15T13:45:21.757Z,100065.13
2023-03-15T13:48:13.469Z,100081.53
2023-03-15T13:51:08.409Z,100066.50
2023-03-15T13:53:59.700Z,100070.88
2023-03-15T13:56:58.193Z,100085.78
2023-03-15T13:59:54.484Z,100094.22
2023-03-15T14:02:46.483Z,100092.28
2023-03-15T14:05:44.039Z,100045.09
2023-03-15T14:08:40.490Z,100090.59
2023-03-15T14:11:40.484Z,100091.47
2023-03-15T14:14:29.668Z,100094.50
2023-03-15T14:17:31.153Z,100065.16
2023-03-15T14:20:19.494Z,100081.19
2023-03-15T14:23:10.722Z,100094.75
2023-03-15T14:26:18.686Z,100093.63
2023-03-15T14:29:21.770Z,100090.34
2023-03-15T14:32:42.335Z,100083.28
2023-03-15T14:35:43.597Z,100078.03
2023-03-15T14:38:38.656Z,100103.81
2023-03-15T14:41:31.777Z,100102.72
2023-03-15T14:44:22.315Z,100078.38
2023-03-15T14:47:22.566Z,100100.06
2023-03-15T14:50:31.093Z,100100.06
2023-03-15T14:53:19.775Z,100108.75
2023-03-15T14:56:06.669Z,100093.84
2023-03-15T14:58:54.505Z,100105.50
2023-03-15T15:01:46.834Z,100088.19
2023-03-15T15:04:34.819Z,100099.28
2023-03-15T15:07:24.137Z,100104.69
2023-03-15T15:10:11.253Z,100111.84
2023-03-15T15:13:05.916Z,100122.44
2023-03-15T15:15:57.259Z,100121.94
2023-03-15T15:18:43.951Z,100108.91
2023-03-15T15:21:33.864Z,100116.75
2023-03-15T15:24:24.552Z,100122.72
2023-03-15T15:27:14.220Z,100125.91
2023-03-15T15:30:00.925Z,100119.75
2023-03-15T15:33:12.545Z,100135.78
2023-03-15T15:36:01.199Z,100137.41
2023-03-15T15:38:48.671Z,100140.41
2023-03-15T15:41:38.785Z,100091.91
2023-03-15T15:44:29.587Z,100141.25
2023-03-15T15:47:23.254Z,100155.63
2023-03-15T15:50:20.453Z,100154.84
2023-03-15T15:53:16.678Z,100138.56
2023-03-15T15:56:05.005Z,100155.66
2023-03-15T15:58:51.976Z,100152.19
2023-03-15T16:01:49.248Z,100123.69
2023-03-15T16:04:43.668Z,100137.25
2023-03-15T16:07:32.400Z,100161.88
2023-03-15T16:10:31.280Z,100162.72
2023-03-15T16:13:18.391Z,100177.44
2023-03-15T16:16:05.392Z,100179.94
2023-03-15T16:18:52.278Z,100135.97
2023-03-15T16:21:52.069Z,100173.97
2023-03-15T16:24:44.396Z,100175.56
2023-03-15T16:27:53.222Z,100183.22
2023-03-15T16:30:46.694Z,100189.78
2023-03-15T16:33:34.875Z,100202.03
2023-03-15T16:36:22.719Z,100192.28
2023-03-15T16:39:14.571Z,100202.88
2023-03-15T16:42:05.849Z,100207.53
2023-03-15T16:44:58.933Z,100212.41
2023-03-15T16:47:48.667Z,100214.91
2023-03-15T16:50:37.504Z,100210.81
2023-03-15T16:53:25.471Z,100229.28
2023-03-15T16:56:24.635Z,100231.47
2023-03-15T16:59:14.567Z,100245.59
2023-03-15T17:02:01.817Z,100240.16
2023-03-15T17:04:51.326Z,100246.41
2023-03-15T17:07:42.654Z,100248.84
2023-03-15T17:10:33.274Z,100243.13
2023-03-15T17:13:27.506Z,100254.78
2023-03-15T17:16:16.666Z,100205.31
2023-03-15T17:19:11.690Z,100219.75
2023-03-15T17:21:59.220Z,100253.41
2023-03-15T17:24:47.843Z,100263.44
2023-03-15T17:27:42.545Z,100272.13
2023-03-15T17:30:34.503Z,100235.69
2023-03-15T17:33:36.599Z,100272.66
2023-03-15T17:36:25.147Z,100217.69
2023-03-15T17:39:17.507Z,100274.50
2023-03-15T17:42:05.425Z,100291.59
2023-03-15T17:44:51.945Z,100289.69
2023-03-15T17:47:39.046Z,100282.00
2023-03-15T17:50:32.537Z,100232.75
2023-03-15T17:53:34.436Z,100287.97
2023-03-15T17:56:39.736Z,100297.50
2023-03-15T17:59:39.562Z,100304.56
2023-03-15T18:02:43.399Z,100307.84
2023-03-15T18:05:39.732Z,100263.81
2023-03-15T18:08:31.487Z,100306.28
2023-03-15T18:11:32.277Z,100300.84
2023-03-15T18:14:21.032Z,100295.41
2023-03-15T18:17:11.977Z,100293.47
2023-03-15T18:19:59.568Z,100303.22
2023-03-15T18:22:48.992Z,100299.69
2023-03-15T18:25:36.222Z,100311.63
2023-03-15T18:28:24.289Z,100313.25
2023-03-15T18:31:15.421Z,100312.13
2023-03-15T18:34:03.978Z,100291.72
2023-03-15T18:36:54.463Z,100258.75
2023-03-15T18:39:42.650Z,100337.31
2023-03-15T18:42:31.909Z,100279.13
2023-03-15T18:45:32.023Z,100317.94
2023-03-15T18:48:22.861Z,100334.34
2023-03-15T18:51:17.832Z,100334.34
2023-03-15T18:54:07.517Z,100334.34
2023-03-15T18:56:54.842Z,100341.31
2023-03-15T18:59:46.147Z,100336.34
2023-03-15T19:02:35.673Z,100337.47
2023-03-15T19:05:22.324Z,100346.28
2023-03-15T19:08:14.617Z,100353.34
2023-03-15T19:11:02.491Z,100354.72
2023-03-15T19:13:52.369Z,100326.94
2023-03-15T19:16:39.062Z,100353.09
2023-03-15T19:19:26.031Z,100364.88
2023-03-15T19:22:13.625Z,100367.09
2023-03-15T19:25:02.539Z,100379.41
2023-03-15T19:27:49.248Z,100372.59
2023-03-15T19:30:39.619Z,100378.88
2023-03-15T19:33:26.321Z,100316.19
2023-03-15T19:36:13.258Z,100341.59
2023-03-15T19:39:00.207Z,100377.63
2023-03-15T19:41:47.248Z,100369.56
2023-03-15T19:44:36.272Z,100390.56
2023-03-15T19:47:32.033Z,100392.91
2023-03-15T19:50:20.016Z,100392.66
2023-03-15T19:53:09.244Z,100399.09
2023-03-15T19:55:55.891Z,100397.84
2023-03-15T19:58:42.908Z,100396.81
2023-03-15T20:01:32.610Z,100370.44
2023-03-15T20:04:25.023Z,100399.41
2023-03-15T20:07:13.259Z,100414.94
2023-03-15T20:10:02.258Z,100409.44
2023-03-15T20:12:48.974Z,100412.69
2023-03-15T20:15:35.802Z,100411.59
2023-03-15T20:18:24.206Z,100362.84
2023-03-15T20:21:11.168Z,100418.19
2023-03-15T20:23:57.812Z,100420.19
2023-03-15T20:26:51.562Z,100380.25
2023-03-15T20:29:38.833Z,100410.56
2023-03-15T20:32:26.516Z,100420.66
2023-03-15T20:35:16.153Z,100414.69
2023-03-15T20:38:08.567Z,100425.69
2023-03-15T20:40:59.815Z,100427.31
2023-03-15T20:43:47.874Z,100396.28
2023-03-15T20:46:37.385Z,100416.75
2023-03-15T20:49:26.961Z,100379.69
2023-03-15T20:52:15.256Z,100436.84
2023-03-15T20:55:03.685Z,100424.44
2023-03-15T20:57:58.896Z,100442.75
2023-03-15T21:00:45.960Z,100444.06
2023-03-15T21:03:35.755Z,100419.47
2023-03-15T21:06:22.844Z,100451.38
2023-03-15T21:09:11.396Z,100433.50
2023-03-15T21:11:59.981Z,100460.16
2023-03-15T21:14:46.800Z,100459.78
2023-03-15T21:17:33.799Z,100461.50
2023-03-15T21:20:20.113Z,100441.16
2023-03-15T21:23:07.086Z,100465.13
2023-03-15T21:25:58.799Z,100415.56
2023-03-15T21:28:46.822Z,100447.31
2023-03-15T21:31:33.875Z,100465.25
2023-03-15T21:34:24.955Z,100475.38
2023-03-15T21:37:11.259Z,100471.09
2023-03-15T21:39:58.130Z,100475.69
2023-03-15T21:42:47.979Z,100474.63
2023-03-15T21:45:34.918Z,100469.25
2023-03-15T21:48:21.675Z,100477.03
2023-03-15T21:51:08.668Z,100464.34
2023-03-15T21:53:58.453Z,100490.56
2023-03-15T21:56:45.926Z,100419.78
2023-03-15T21:59:38.003Z,100473.41
2023-03-15T22:02:25.052Z,100486.28
2023-03-15T22:05:13.480Z,100496.38
2023-03-15T22:08:01.006Z,100488.66
2023-03-15T22:10:47.761Z,100499.22
2023-03-15T22:13:35.910Z,100496.97
2023-03-15T22:16:31.089Z,100496.28
2023-03-15T22:19:22.648Z,100508.94
2023-03-15T22:22:09.045Z,100440.72
2023-03-15T22:24:55.567Z,100502.00
2023-03-15T22:27:45.170Z,100512.69
2023-03-15T22:30:32.390Z,100514.53
2023-03-15T22:33:25.794Z,100511.84
2023-03-15T22:36:13.222Z,100514.28
2023-03-15T22:39:01.440Z,100512.91
2023-03-15T22:41:48.375Z,100520.03
2023-03-15T22:44:38.572Z,100513.69
2023-03-15T22:47:25.476Z,100480.91
2023-03-15T22:50:15.678Z,100512.53
2023-03-15T22:53:05.283Z,100524.31
2023-03-15T22:55:51.447Z,100516.84
2023-03-15T22:58:38.487Z,100523.59
2023-03-15T23:01:26.237Z,100522.38
2023-03-15T23:04:15.845Z,100516.03
2023-03-15T23:07:03.729Z,100522.25
2023-03-15T23:09:53.941Z,100522.53
2023-03-15T23:12:43.660Z,100524.72
2023-03-15T23:15:31.306Z,100531.97
2023-03-15T23:18:20.573Z,100521.03
2023-03-15T23:21:08.937Z,100541.91
2023-03-15T23:23:59.861Z,100542.63
2023-03-15T23:26:47.067Z,100518.66
2023-03-15T23:29:47.067Z,100545.72
2023-03-15T23:32:40.740Z,100515.81
2023-03-15T23:35:37.299Z,100537.19
2023-03-15T23:38:25.384Z,100534.19
2023-03-15T23:41:20.584Z,100541.16
2023-03-15T23:44:11.103Z,100537.22
2023-03-15T23:47:03.011Z,100546.28
2023-03-15T23:49:53.349Z,100541.88
2023-03-15T23:52:47.380Z,100543.94
2023-03-15T23:55:36.662Z,100510.94
2023-03-15T23:58:28.399Z,100550.72
